createdAt,value
2023-04-01T00:02:13.118Z,92.43
2023-04-01T00:04:51.201Z,92.51
2023-04-01T00:11:48.001Z,92.69
2023-04-01T00:18:18.247Z,93.01
2023-04-01T00:21:09.972Z,93.11
2023-04-01T00:34:00.154Z,92.41
2023-04-01T00:37:18.584Z,92.68
2023-04-01T00:40:37.161Z,92.55
2023-04-01T00:54:37.833Z,92.71
2023-04-01T00:58:23.630Z,93.50
2023-04-01T01:01:01.030Z,94.27
2023-04-01T01:03:34.597Z,94.47
2023-04-01T01:07:46.407Z,94.70
2023-04-01T01:10:51.716Z,94.29
2023-04-01T01:14:28.791Z,95.02
2023-04-01T01:17:45.291Z,94.55
2023-04-01T01:21:14.458Z,94.80
2023-04-01T01:24:22.137Z,94.87
2023-04-01T01:27:37.169Z,94.44
2023-04-01T01:34:05.904Z,94.64
2023-04-01T01:36:45.234Z,95.02
2023-04-01T01:48:41.954Z,94.49
2023-04-01T01:51:21.886Z,94.99
2023-04-01T01:58:14.344Z,94.41
2023-04-01T02:00:35.716Z,95.48
2023-04-01T02:03:27.316Z,95.59
2023-04-01T02:06:01.493Z,95.84
2023-04-01T02:10:00.624Z,95.75
2023-04-01T02:12:14.817Z,95.88
2023-04-01T02:15:21.434Z,96.14
2023-04-01T02:18:27.061Z,96.17
2023-04-01T02:21:47.565Z,95.62
2023-04-01T02:24:34.760Z,95.89
2023-04-01T02:27:07.258Z,95.43
2023-04-01T02:29:51.050Z,95.71
2023-04-01T02:38:40.598Z,95.75
2023-04-01T02:41:55.831Z,95.63
2023-04-01T02:47:37.507Z,95.77
2023-04-01T02:50:36.285Z,95.72
2023-04-01T02:53:15.181Z,95.55
2023-04-01T02:59:12.912Z,95.06
2023-04-01T03:01:51.697Z,95.27
2023-04-01T03:07:41.343Z,95.79
2023-04-01T03:10:17.079Z,95.80
2023-04-01T03:12:45.096Z,95.86
2023-04-01T03:16:01.103Z,95.16
2023-04-01T03:22:20.995Z,95.61
2023-04-01T03:25:10.656Z,95.53
2023-04-01T03:28:06.039Z,95.67
2023-04-01T03:31:32.335Z,95.81
2023-04-01T03:34:31.428Z,95.62
2023-04-01T03:37:13.356Z,95.49
2023-04-01T03:39:47.733Z,95.96
2023-04-01T03:42:23.663Z,95.72
2023-04-01T03:48:16.770Z,95.40
2023-04-01T03:51:34.011Z,95.20
2023-04-01T04:00:59.414Z,95.67
2023-04-01T04:06:17.897Z,95.98
2023-04-01T04:10:30.479Z,95.62
2023-04-01T04:22:51.249Z,96.13
2023-04-01T04:53:23.722Z,96.39
2023-04-01T04:57:34.088Z,96.17
2023-04-01T05:02:46.904Z,95.86
2023-04-01T05:08:07.594Z,95.80
2023-04-01T05:17:23.231Z,95.73
2023-04-01T05:24:11.901Z,96.09
2023-04-01T05:41:03.278Z,96.12
2023-04-01T05:54:34.804Z,96.48
2023-04-01T06:01:10.421Z,96.39
2023-04-01T06:04:05.774Z,97.11
2023-04-01T06:07:42.338Z,96.95
2023-04-01T06:10:49.028Z,96.70
2023-04-01T06:19:21.198Z,96.68
2023-04-01T06:38:47.047Z,95.99
2023-04-01T06:42:02.847Z,95.82
2023-04-01T06:45:26.128Z,95.43
2023-04-01T06:48:34.321Z,95.18
2023-04-01T06:51:03.761Z,95.13
2023-04-01T06:53:43.681Z,94.73
2023-04-01T06:59:29.993Z,93.84
2023-04-01T07:02:20.617Z,93.96
2023-04-01T07:05:00.998Z,94.41
2023-04-01T07:12:41.153Z,93.93
2023-04-01T07:15:33.436Z,94.30
2023-04-01T07:18:19.315Z,94.50
2023-04-01T07:23:34.215Z,94.30
2023-04-01T07:26:22.026Z,94.00
2023-04-01T07:28:49.641Z,94.20
2023-04-01T07:31:29.628Z,93.84
2023-04-01T07:34:15.301Z,93.92
2023-04-01T07:37:05.147Z,94.28
2023-04-01T07:40:03.963Z,94.11
2023-04-01T07:42:34.591Z,94.54
2023-04-01T07:48:19.058Z,94.29
2023-04-01T07:51:07.151Z,94.33
2023-04-01T07:53:38.172Z,94.30
2023-04-01T07:56:13.530Z,93.90
2023-04-01T07:58:59.166Z,93.93
2023-04-01T08:01:50.782Z,93.89
2023-04-01T08:04:20.632Z,94.17
2023-04-01T08:07:06.034Z,94.29
2023-04-01T08:09:45.974Z,94.15
2023-04-01T08:12:18.491Z,93.98
2023-04-01T08:14:54.402Z,93.99
2023-04-01T08:17:24.302Z,93.82
2023-04-01T08:20:09.482Z,93.73
2023-04-01T08:22:49.261Z,93.50
2023-04-01T08:25:35.136Z,93.57
2023-04-01T08:28:14.437Z,93.50
2023-04-01T08:30:52.465Z,93.62
2023-04-01T08:33:26.369Z,93.41
2023-04-01T08:35:58.612Z,93.25
2023-04-01T08:41:40.878Z,92.80
2023-04-01T08:44:37.892Z,92.97
2023-04-01T08:47:31.014Z,92.77
2023-04-01T08:50:35.498Z,92.35
2023-04-01T08:53:16.466Z,92.74
2023-04-01T08:56:14.615Z,92.29
2023-04-01T08:59:22.589Z,92.37
2023-04-01T09:03:26.639Z,92.39
2023-04-01T09:14:48.219Z,92.71
2023-04-01T09:21:34.168Z,92.79
2023-04-01T09:24:35.916Z,92.97
2023-04-01T09:27:37.143Z,92.75
2023-04-01T09:34:25.297Z,91.79
2023-04-01T09:39:27.201Z,91.36
2023-04-01T09:45:32.232Z,90.68
2023-04-01T09:48:58.200Z,90.85
2023-04-01T10:00:02.029Z,88.89
2023-04-01T10:02:34.479Z,88.36
2023-04-01T10:05:28.380Z,88.07
2023-04-01T10:08:21.980Z,87.07
2023-04-01T10:11:16.345Z,86.04
2023-04-01T10:14:03.762Z,85.93
2023-04-01T10:16:55.617Z,85.67
2023-04-01T10:19:40.813Z,86.47
2023-04-01T10:22:25.805Z,85.45
2023-04-01T10:24:57.893Z,85.93
2023-04-01T10:27:38.354Z,84.24
2023-04-01T10:30:16.351Z,85.00
2023-04-01T10:32:48.960Z,85.15
2023-04-01T10:35:24.911Z,84.24
2023-04-01T10:37:54.211Z,83.91
2023-04-01T10:40:37.202Z,84.62
2023-04-01T10:43:32.848Z,83.81
2023-04-01T10:46:17.086Z,83.87
2023-04-01T10:49:11.112Z,82.85
2023-04-01T10:51:58.875Z,83.18
2023-04-01T10:55:13.684Z,82.91
2023-04-01T10:58:17.680Z,83.09
2023-04-01T11:01:15.052Z,83.03
2023-04-01T11:04:17.400Z,82.66
2023-04-01T11:06:55.993Z,82.77
2023-04-01T11:09:59.930Z,82.88
2023-04-01T11:12:45.542Z,82.73
2023-04-01T11:15:32.521Z,81.38
2023-04-01T11:18:10.323Z,80.87
2023-04-01T11:21:01.702Z,80.13
2023-04-01T11:24:03.894Z,78.63
2023-04-01T11:26:51.251Z,78.94
2023-04-01T11:29:58.712Z,78.46
2023-04-01T11:32:49.456Z,78.57
2023-04-01T11:35:38.236Z,78.15
2023-04-01T11:38:36.096Z,78.76
2023-04-01T11:41:27.724Z,79.97
2023-04-01T11:44:09.358Z,81.12
2023-04-01T11:46:47.930Z,80.58
2023-04-01T11:49:35.879Z,80.49
2023-04-01T11:52:23.249Z,81.59
2023-04-01T11:55:34.448Z,81.85
2023-04-01T12:02:06.897Z,83.88
2023-04-01T12:09:49.428Z,84.31
2023-04-01T12:13:02.270Z,84.74
2023-04-01T12:16:44.265Z,84.40
2023-04-01T12:20:04.973Z,85.05
2023-04-01T12:23:28.198Z,85.57
2023-04-01T12:26:38.824Z,85.05
2023-04-01T12:29:08.719Z,85.01
2023-04-01T12:31:40.503Z,85.67
2023-04-01T12:34:14.699Z,84.64
2023-04-01T12:36:51.347Z,84.79
2023-04-01T12:39:52.982Z,84.25
2023-04-01T12:42:32.521Z,84.98
2023-04-01T12:45:03.434Z,84.38
2023-04-01T12:47:53.284Z,83.86
2023-04-01T12:50:27.790Z,83.85
2023-04-01T12:53:23.345Z,84.34
2023-04-01T12:56:02.256Z,84.21
2023-04-01T12:58:34.279Z,84.06
2023-04-01T13:01:37.333Z,84.73
2023-04-01T13:04:28.821Z,84.35
2023-04-01T13:06:58.218Z,85.12
2023-04-01T13:09:34.664Z,84.84
2023-04-01T13:12:38.886Z,85.24
2023-04-01T13:15:13.926Z,85.39
2023-04-01T13:18:18.023Z,85.52
2023-04-01T13:21:09.714Z,85.56
2023-04-01T13:24:02.596Z,85.84
2023-04-01T13:27:03.026Z,86.56
2023-04-01T13:29:38.450Z,86.66
2023-04-01T13:35:31.005Z,87.06
2023-04-01T13:38:04.804Z,87.42
2023-04-01T13:40:49.358Z,88.03
2023-04-01T13:44:00.167Z,89.03
2023-04-01T13:46:41.860Z,88.80
2023-04-01T13:49:34.884Z,88.20
2023-04-01T13:52:30.389Z,88.70
2023-04-01T13:55:18.209Z,89.02
2023-04-01T13:58:11.022Z,89.25
2023-04-01T14:04:38.658Z,89.17
2023-04-01T14:08:13.902Z,89.37
2023-04-01T14:11:18.186Z,88.90
2023-04-01T14:13:50.031Z,88.79
2023-04-01T14:16:58.526Z,88.91
2023-04-01T14:22:55.860Z,90.25
2023-04-01T14:25:49.511Z,89.81
2023-04-01T14:28:59.197Z,89.77
2023-04-01T14:46:20.601Z,89.50
2023-04-01T14:53:09.147Z,89.25
2023-04-01T14:55:44.991Z,90.21
2023-04-01T14:58:20.070Z,90.23
2023-04-01T15:08:03.119Z,90.51
2023-04-01T15:11:04.141Z,90.66
2023-04-01T15:13:35.894Z,91.16
2023-04-01T15:16:32.307Z,91.33
2023-04-01T15:22:20.742Z,91.61
2023-04-01T15:28:20.127Z,91.75
2023-04-01T15:31:33.635Z,91.37
2023-04-01T15:34:50.616Z,91.72
2023-04-01T15:37:23.285Z,91.63
2023-04-01T15:40:15.632Z,91.18
2023-04-01T15:43:35.246Z,91.29
2023-04-01T15:46:38.038Z,91.96
2023-04-01T15:49:19.661Z,91.65
2023-04-01T15:52:17.564Z,91.83
2023-04-01T15:55:40.953Z,91.69
2023-04-01T15:58:59.580Z,91.84
2023-04-01T16:01:50.877Z,91.44
2023-04-01T16:04:26.584Z,91.02
2023-04-01T16:07:31.192Z,90.95
2023-04-01T16:10:51.235Z,90.76
2023-04-01T16:17:59.840Z,91.13
2023-04-01T16:23:57.081Z,91.15
2023-04-01T16:26:45.438Z,91.13
2023-04-01T16:29:24.809Z,91.38
2023-04-01T16:32:05.176Z,90.73
2023-04-01T16:34:37.398Z,90.55
2023-04-01T16:37:18.363Z,90.56
2023-04-01T16:39:55.432Z,90.58
2023-04-01T16:42:53.921Z,90.65
2023-04-01T16:45:27.838Z,90.72
2023-04-01T16:47:57.742Z,91.04
2023-04-01T16:50:26.021Z,91.73
2023-04-01T16:53:01.938Z,91.52
2023-04-01T16:55:47.052Z,91.35
2023-04-01T16:58:21.953Z,91.02
2023-04-01T17:00:57.101Z,90.79
2023-04-01T17:03:38.799Z,91.00
2023-04-01T17:06:36.246Z,91.10
2023-04-01T17:09:32.144Z,91.27
2023-04-01T17:12:26.084Z,91.75
2023-04-01T17:14:53.334Z,91.41
2023-04-01T17:17:27.843Z,90.93
2023-04-01T17:20:17.317Z,91.12
2023-04-01T17:22:57.946Z,91.32
2023-04-01T17:25:51.145Z,91.39
2023-04-01T17:28:17.464Z,91.68
2023-04-01T17:30:56.317Z,91.03
2023-04-01T17:33:59.201Z,90.93
2023-04-01T17:36:54.641Z,91.53
2023-04-01T17:39:23.919Z,91.45
2023-04-01T17:42:22.089Z,91.48
2023-04-01T17:44:54.526Z,91.33
2023-04-01T17:47:51.427Z,91.45
2023-04-01T17:50:36.821Z,91.56
2023-04-01T17:53:27.598Z,91.22
2023-04-01T17:56:07.907Z,90.93
2023-04-01T17:59:02.091Z,91.42
2023-04-01T18:01:47.786Z,91.62
2023-04-01T18:04:26.408Z,91.39
2023-04-01T18:07:02.188Z,91.30
2023-04-01T18:09:40.878Z,91.75
2023-04-01T18:12:07.333Z,91.37
2023-04-01T18:14:56.013Z,90.97
2023-04-01T18:17:26.390Z,90.94
2023-04-01T18:20:17.752Z,90.90
2023-04-01T18:22:46.972Z,91.31
2023-04-01T18:25:19.747Z,91.17
2023-04-01T18:28:23.531Z,90.49
2023-04-01T18:30:56.872Z,90.68
2023-04-01T18:33:44.271Z,90.69
2023-04-01T18:36:19.184Z,90.88
2023-04-01T18:38:58.198Z,90.80
2023-04-01T18:41:42.242Z,91.53
2023-04-01T18:44:39.791Z,91.42
2023-04-01T18:47:31.036Z,91.55
2023-04-01T18:50:12.955Z,91.69
2023-04-01T18:52:42.742Z,91.69
2023-04-01T18:55:15.250Z,91.33
2023-04-01T18:57:51.685Z,91.15
2023-04-01T19:00:23.672Z,91.06
2023-04-01T19:03:12.058Z,91.17
2023-04-01T19:05:41.249Z,91.39
2023-04-01T19:08:31.360Z,90.77
2023-04-01T19:11:10.141Z,90.55
2023-04-01T19:13:43.770Z,90.98
2023-04-01T19:16:25.748Z,90.42
2023-04-01T19:18:55.360Z,90.55
2023-04-01T19:21:41.149Z,90.57
2023-04-01T19:24:25.287Z,90.85
2023-04-01T19:27:01.858Z,90.68
2023-04-01T19:29:40.621Z,90.34
2023-04-01T19:32:16.766Z,90.23
2023-04-01T19:34:52.210Z,90.98
2023-04-01T19:37:42.198Z,90.56
2023-04-01T19:40:35.003Z,90.23
2023-04-01T19:43:11.579Z,90.39
2023-04-01T19:45:53.302Z,89.93
2023-04-01T19:48:57.336Z,90.11
2023-04-01T19:51:31.189Z,90.07
2023-04-01T19:54:20.395Z,89.90
2023-04-01T19:57:22.314Z,89.63
2023-04-01T19:59:53.116Z,89.79
2023-04-01T20:02:39.338Z,89.50
2023-04-01T20:05:20.241Z,89.92
2023-04-01T20:07:56.580Z,90.19
2023-04-01T20:10:36.475Z,89.96
2023-04-01T20:13:15.108Z,89.80
2023-04-01T20:15:47.736Z,89.50
2023-04-01T20:18:21.141Z,89.33
2023-04-01T20:20:56.752Z,89.22
2023-04-01T20:23:40.259Z,89.53
2023-04-01T20:26:13.936Z,88.93
2023-04-01T20:28:49.602Z,88.96
2023-04-01T20:31:37.777Z,89.14
2023-04-01T20:34:33.468Z,89.17
2023-04-01T20:37:21.958Z,88.88
2023-04-01T20:40:09.903Z,89.25
2023-04-01T20:42:55.124Z,88.89
2023-04-01T20:45:29.267Z,89.27
2023-04-01T20:48:20.047Z,88.60
2023-04-01T20:51:11.064Z,88.44
2023-04-01T20:53:44.035Z,88.80
2023-04-01T20:56:16.755Z,88.48
2023-04-01T20:58:49.382Z,88.29
2023-04-01T21:01:24.236Z,88.26
2023-04-01T21:04:01.458Z,88.21
2023-04-01T21:06:33.809Z,88.45
2023-04-01T21:09:21.865Z,88.59
2023-04-01T21:12:16.366Z,89.04
2023-04-01T21:15:00.119Z,89.87
2023-04-01T21:17:45.402Z,89.61
2023-04-01T21:20:36.816Z,89.05
2023-04-01T21:23:24.574Z,88.63
2023-04-01T21:26:35.591Z,88.44
2023-04-01T21:29:26.447Z,88.71
2023-04-01T21:31:58.822Z,88.92
2023-04-01T21:34:46.960Z,88.69
2023-04-01T21:37:44.416Z,88.66
2023-04-01T21:40:48.083Z,88.55
2023-04-01T21:43:39.480Z,88.74
2023-04-01T21:46:24.273Z,88.75
2023-04-01T21:49:09.590Z,88.85
2023-04-01T21:51:43.420Z,89.09
2023-04-01T21:54:41.098Z,88.85
2023-04-01T21:57:41.602Z,89.17
2023-04-01T22:00:16.944Z,89.48
2023-04-01T22:02:55.578Z,88.84
2023-04-01T22:05:32.377Z,88.97
2023-04-01T22:08:04.918Z,88.96
2023-04-01T22:10:42.866Z,88.56
2023-04-01T22:13:39.487Z,88.52
2023-04-01T22:16:10.402Z,88.85
2023-04-01T22:19:01.517Z,89.41
2023-04-01T22:21:42.083Z,88.87
2023-04-01T22:24:25.337Z,88.54
2023-04-01T22:27:21.123Z,88.67
2023-04-01T22:30:02.916Z,88.38
2023-04-01T22:32:30.473Z,87.70
2023-04-01T22:35:05.867Z,88.93
2023-04-01T22:37:56.370Z,88.76
2023-04-01T22:40:27.875Z,89.03
2023-04-01T22:42:59.028Z,89.08
2023-04-01T22:45:44.376Z,88.59
2023-04-01T22:48:22.247Z,89.18
2023-04-01T22:50:51.694Z,88.51
2023-04-01T22:53:30.823Z,88.55
2023-04-01T22:56:01.101Z,88.43
2023-04-01T22:58:34.204Z,88.34
2023-04-01T23:01:04.674Z,88.42
2023-04-01T23:03:32.608Z,88.57
2023-04-01T23:06:01.120Z,88.38
2023-04-01T23:09:00.708Z,88.19
2023-04-01T23:11:36.431Z,88.40
2023-04-01T23:14:27.758Z,88.58
2023-04-01T23:17:08.697Z,88.79
2023-04-01T23:19:44.678Z,88.57
2023-04-01T23:22:21.016Z,88.55
2023-04-01T23:24:51.708Z,88.65
2023-04-01T23:27:52.334Z,88.36
2023-04-01T23:30:40.765Z,88.06
2023-04-01T23:33:30.996Z,88.16
2023-04-01T23:36:08.495Z,88.21
2023-04-01T23:38:36.982Z,87.89
2023-04-01T23:41:04.265Z,88.17
2023-04-01T23:43:41.905Z,88.13
2023-04-01T23:46:08.647Z,88.64
2023-04-01T23:48:39.826Z,88.21
2023-04-01T23:51:15.762Z,88.42
2023-04-01T23:53:45.706Z,88.17
2023-04-01T23:56:12.126Z,88.08
2023-04-01T23:58:38.433Z,88.15
